createdAt,value
2022-11-19T00:01:52.081Z,60.50
2022-11-19T00:04:24.477Z,56.90
2022-11-19T00:06:56.252Z,56.10
2022-11-19T00:09:28.296Z,55.30
2022-11-19T00:12:17.377Z,52.00
2022-11-19T00:14:49.090Z,56.00
2022-11-19T00:17:21.006Z,56.20
2022-11-19T00:19:52.727Z,51.00
2022-11-19T00:22:24.692Z,57.50
2022-11-19T00:24:56.452Z,59.40
2022-11-19T00:27:28.361Z,57.90
2022-11-19T00:30:00.140Z,60.40
2022-11-19T00:32:33.051Z,56.70
2022-11-19T00:35:04.994Z,62.00
2022-11-19T00:37:36.716Z,59.10
2022-11-19T00:40:12.015Z,59.00
2022-11-19T00:43:03.751Z,53.30
2022-11-19T00:45:35.518Z,55.80
2022-11-19T00:48:08.097Z,54.10
2022-11-19T00:50:40.438Z,53.40
2022-11-19T00:53:12.218Z,51.80
2022-11-19T00:55:43.931Z,51.30
2022-11-19T00:58:16.513Z,50.40
2022-11-19T01:00:48.468Z,54.40
2022-11-19T01:03:20.273Z,56.90
2022-11-19T01:05:52.238Z,57.20
2022-11-19T01:08:24.284Z,50.30
2022-11-19T01:10:56.370Z,55.30
2022-11-19T01:13:36.834Z,53.80
2022-11-19T01:16:11.653Z,55.30
2022-11-19T01:18:44.665Z,53.60
2022-11-19T01:21:17.321Z,51.10
2022-11-19T01:23:49.660Z,48.10
2022-11-19T01:26:21.433Z,49.00
2022-11-19T01:28:53.860Z,54.80
2022-11-19T01:31:30.405Z,49.10
2022-11-19T01:34:02.291Z,53.50
2022-11-19T01:36:34.051Z,53.00
2022-11-19T01:39:06.122Z,50.90
2022-11-19T01:41:38.025Z,48.90
2022-11-19T01:44:24.098Z,48.80
2022-11-19T01:46:55.836Z,48.50
2022-11-19T01:49:27.583Z,46.90
2022-11-19T01:52:03.933Z,44.90
2022-11-19T01:54:40.582Z,45.20
2022-11-19T01:57:15.462Z,43.70
2022-11-19T01:59:51.642Z,41.20
2022-11-19T02:02:25.199Z,44.90
2022-11-19T02:04:58.417Z,44.20
2022-11-19T02:07:33.343Z,43.50
2022-11-19T02:10:08.143Z,45.30
2022-11-19T02:12:46.545Z,48.70
2022-11-19T02:15:32.041Z,48.60
2022-11-19T02:18:19.540Z,48.70
2022-11-19T02:21:03.079Z,49.70
2022-11-19T02:24:11.054Z,48.80
2022-11-19T02:30:10.848Z,47.90
2022-11-19T02:32:55.107Z,44.90
2022-11-19T02:35:43.037Z,43.60
2022-11-19T02:38:24.128Z,44.40
2022-11-19T02:41:00.400Z,49.20
2022-11-19T02:43:40.097Z,52.40
2022-11-19T02:46:16.274Z,52.00
2022-11-19T02:48:52.970Z,45.10
2022-11-19T02:51:25.264Z,46.70
2022-11-19T02:53:58.487Z,46.60
2022-11-19T02:56:51.881Z,42.40
2022-11-19T02:59:45.965Z,44.30
2022-11-19T03:02:37.535Z,40.30
2022-11-19T03:05:14.632Z,46.50
2022-11-19T03:07:46.627Z,39.40
2022-11-19T03:10:23.738Z,45.60
2022-11-19T03:12:59.897Z,42.60
2022-11-19T03:16:00.072Z,39.90
2022-11-19T03:18:38.388Z,43.90
2022-11-19T03:23:44.227Z,44.40
2022-11-19T03:26:25.770Z,45.80
2022-11-19T03:28:59.818Z,48.30
2022-11-19T03:31:34.316Z,44.10
2022-11-19T03:34:10.539Z,54.70
2022-11-19T03:36:44.429Z,50.50
2022-11-19T03:39:19.283Z,43.50
2022-11-19T03:41:53.861Z,41.70
2022-11-19T03:44:29.846Z,40.70
2022-11-19T03:47:08.021Z,44.70
2022-11-19T03:49:42.906Z,44.70
2022-11-19T03:52:17.685Z,42.40
2022-11-19T03:54:49.717Z,38.80
2022-11-19T03:57:24.577Z,39.70
2022-11-19T03:59:56.311Z,36.10
2022-11-19T04:02:28.060Z,38.40
2022-11-19T04:04:59.929Z,34.60
2022-11-19T04:07:32.012Z,34.50
2022-11-19T04:10:03.816Z,33.30
2022-11-19T04:12:35.565Z,33.80
2022-11-19T04:15:09.361Z,31.80
2022-11-19T04:17:41.419Z,32.00
2022-11-19T04:20:15.301Z,31.40
2022-11-19T04:22:47.167Z,31.10
2022-11-19T04:25:19.144Z,32.10
2022-11-19T04:27:50.861Z,32.50
2022-11-19T04:30:22.676Z,30.40
2022-11-19T04:32:54.598Z,27.60
2022-11-19T04:35:26.403Z,28.40
2022-11-19T04:37:58.131Z,28.50
2022-11-19T04:40:29.854Z,30.90
2022-11-19T04:43:01.893Z,24.50
2022-11-19T04:45:33.873Z,26.70
2022-11-19T04:48:05.759Z,25.10
2022-11-19T04:50:37.478Z,24.90
2022-11-19T04:53:09.297Z,27.70
2022-11-19T04:55:41.314Z,27.10
2022-11-19T04:58:13.063Z,28.50
2022-11-19T05:00:44.843Z,29.60
2022-11-19T05:03:16.816Z,28.40
2022-11-19T05:05:48.570Z,28.20
2022-11-19T05:08:20.457Z,23.80
2022-11-19T05:10:52.222Z,25.20
2022-11-19T05:13:23.993Z,24.30
2022-11-19T05:15:55.731Z,24.60
2022-11-19T05:18:27.942Z,24.30
2022-11-19T05:20:59.666Z,23.20
2022-11-19T05:23:31.405Z,23.80
2022-11-19T05:26:03.206Z,25.00
2022-11-19T05:28:39.170Z,24.90
2022-11-19T05:31:11.655Z,25.70
2022-11-19T05:33:43.355Z,26.30
2022-11-19T05:36:15.119Z,24.70
2022-11-19T05:38:46.866Z,27.10
2022-11-19T05:41:18.638Z,24.30
2022-11-19T05:43:50.402Z,23.30
2022-11-19T05:46:22.603Z,24.80
2022-11-19T05:48:55.121Z,22.10
2022-11-19T05:51:26.950Z,20.80
2022-11-19T05:53:58.762Z,22.70
2022-11-19T05:56:31.326Z,22.20
2022-11-19T05:59:03.165Z,23.70
2022-11-19T06:01:34.904Z,23.40
2022-11-19T06:04:06.809Z,23.60
2022-11-19T06:06:38.616Z,24.40
2022-11-19T06:09:10.760Z,25.00
2022-11-19T06:11:49.124Z,25.90
2022-11-19T06:16:55.148Z,26.20
2022-11-19T06:19:28.211Z,29.50
2022-11-19T06:22:00.283Z,30.40
2022-11-19T06:24:32.028Z,25.80
2022-11-19T06:27:03.764Z,24.50
2022-11-19T06:29:35.518Z,25.80
2022-11-19T06:32:07.500Z,26.80
2022-11-19T06:34:39.227Z,26.40
2022-11-19T06:37:10.995Z,27.10
2022-11-19T06:39:42.985Z,37.70
2022-11-19T06:42:32.448Z,29.20
2022-11-19T06:45:04.237Z,44.00
2022-11-19T06:47:36.587Z,93.50
2022-11-19T06:50:10.273Z,35.80
2022-11-19T06:52:42.062Z,29.20
2022-11-19T06:55:14.552Z,32.50
2022-11-19T06:57:46.321Z,26.40
2022-11-19T07:00:19.560Z,29.10
2022-11-19T07:02:51.432Z,33.20
2022-11-19T07:05:23.235Z,27.40
2022-11-19T07:07:57.710Z,33.10
2022-11-19T07:13:05.337Z,25.10
2022-11-19T07:15:37.282Z,20.30
2022-11-19T07:18:09.903Z,23.10
2022-11-19T07:20:41.662Z,23.20
2022-11-19T07:23:14.278Z,22.50
2022-11-19T07:25:46.086Z,22.30
2022-11-19T07:28:17.853Z,24.70
2022-11-19T07:30:49.625Z,26.20
2022-11-19T07:33:21.466Z,30.10
2022-11-19T07:35:53.215Z,25.40
2022-11-19T07:38:25.017Z,23.60
2022-11-19T07:40:57.749Z,24.10
2022-11-19T07:43:29.507Z,23.70
2022-11-19T07:46:06.205Z,22.60
2022-11-19T07:48:37.939Z,22.60
2022-11-19T07:51:10.837Z,20.20
2022-11-19T07:53:43.116Z,22.70
2022-11-19T07:56:15.006Z,23.70
2022-11-19T07:58:47.136Z,21.60
2022-11-19T08:01:21.009Z,24.50
2022-11-19T08:03:56.527Z,24.70
2022-11-19T08:06:30.816Z,24.30
2022-11-19T08:09:04.012Z,22.20
2022-11-19T08:11:36.018Z,23.30
2022-11-19T08:14:07.971Z,22.30
2022-11-19T08:16:57.910Z,20.80
2022-11-19T08:19:29.721Z,22.60
2022-11-19T08:22:01.780Z,22.80
2022-11-19T08:24:36.674Z,22.90
2022-11-19T08:27:08.592Z,23.50
2022-11-19T08:29:40.771Z,23.80
2022-11-19T08:32:12.681Z,29.60
2022-11-19T08:34:44.662Z,29.40
2022-11-19T08:37:16.529Z,24.10
2022-11-19T08:39:48.801Z,24.00
2022-11-19T08:42:53.136Z,28.20
2022-11-19T08:45:27.040Z,28.60
2022-11-19T08:48:00.927Z,24.70
2022-11-19T08:50:33.663Z,29.80
2022-11-19T08:53:07.113Z,22.70
2022-11-19T08:55:39.075Z,22.40
2022-11-19T08:58:12.843Z,23.90
2022-11-19T09:00:44.999Z,22.80
2022-11-19T09:03:16.954Z,23.20
2022-11-19T09:05:48.801Z,23.30
2022-11-19T09:08:20.559Z,24.00
2022-11-19T09:10:52.505Z,23.00
2022-11-19T09:13:24.595Z,25.20
2022-11-19T09:15:56.510Z,22.50
2022-11-19T09:18:28.663Z,21.40
2022-11-19T09:21:00.978Z,20.80
2022-11-19T09:23:32.765Z,21.40
2022-11-19T09:26:06.824Z,24.10
2022-11-19T09:28:38.586Z,20.60
2022-11-19T09:31:13.496Z,19.70
2022-11-19T09:33:48.562Z,21.50
2022-11-19T09:36:21.407Z,23.90
2022-11-19T09:38:57.140Z,21.70
2022-11-19T09:41:58.830Z,22.00
2022-11-19T09:44:41.956Z,24.90
2022-11-19T09:47:30.280Z,24.60
2022-11-19T09:56:39.446Z,19.70
2022-11-19T09:59:22.126Z,20.50
2022-11-19T10:01:54.519Z,22.30
2022-11-19T10:04:29.111Z,20.40
2022-11-19T10:07:11.522Z,21.30
2022-11-19T10:09:55.893Z,21.00
2022-11-19T10:12:47.965Z,19.40
2022-11-19T10:15:26.194Z,21.30
2022-11-19T10:18:08.553Z,22.80
2022-11-19T10:20:54.142Z,22.90
2022-11-19T10:23:36.967Z,20.80
2022-11-19T10:26:14.020Z,20.90
2022-11-19T10:28:52.800Z,23.00
2022-11-19T10:31:34.239Z,18.30
2022-11-19T10:34:14.438Z,19.80
2022-11-19T10:36:51.057Z,19.60
2022-11-19T10:39:28.402Z,21.40
2022-11-19T10:42:07.889Z,19.70
2022-11-19T10:44:45.278Z,23.50
2022-11-19T10:47:21.578Z,19.30
2022-11-19T10:49:56.525Z,19.40
2022-11-19T10:52:34.889Z,19.80
2022-11-19T10:57:48.112Z,18.70
2022-11-19T11:00:21.300Z,21.50
2022-11-19T11:02:59.720Z,21.00
2022-11-19T11:05:32.628Z,23.20
2022-11-19T11:08:13.010Z,22.00
2022-11-19T11:10:48.269Z,22.70
2022-11-19T11:13:56.785Z,22.90
2022-11-19T11:16:41.346Z,22.20
2022-11-19T11:19:19.238Z,19.80
2022-11-19T11:21:55.874Z,22.20
2022-11-19T11:24:36.202Z,19.80
2022-11-19T11:27:23.073Z,20.30
2022-11-19T11:30:16.131Z,20.20
2022-11-19T11:32:48.511Z,21.40
2022-11-19T11:35:34.518Z,21.60
2022-11-19T11:38:08.265Z,19.70
2022-11-19T11:40:40.232Z,20.60
2022-11-19T11:43:19.109Z,25.00
2022-11-19T11:45:59.705Z,25.30
2022-11-19T11:48:36.334Z,21.40
2022-11-19T11:51:09.233Z,23.20
2022-11-19T11:53:43.199Z,22.50
2022-11-19T11:56:22.042Z,26.20
2022-11-19T11:58:53.969Z,27.30
2022-11-19T12:01:25.786Z,21.20
2022-11-19T12:03:59.842Z,23.10
2022-11-19T12:06:42.459Z,24.00
2022-11-19T12:09:23.826Z,23.70
2022-11-19T12:12:01.918Z,28.20
2022-11-19T12:14:39.335Z,25.00
2022-11-19T12:17:27.970Z,25.70
2022-11-19T12:20:17.767Z,24.50
2022-11-19T12:23:05.058Z,24.40
2022-11-19T12:25:41.322Z,24.80
2022-11-19T12:28:32.891Z,25.30
2022-11-19T12:31:17.071Z,24.00
2022-11-19T12:34:06.963Z,27.90
2022-11-19T12:36:49.174Z,29.80
2022-11-19T12:39:33.778Z,30.60
2022-11-19T12:42:27.075Z,27.60
2022-11-19T12:45:07.657Z,25.50
2022-11-19T12:47:59.521Z,30.90
2022-11-19T12:50:44.636Z,27.80
2022-11-19T12:53:28.840Z,30.80
2022-11-19T12:56:11.818Z,30.40
2022-11-19T12:58:56.640Z,26.50
2022-11-19T13:01:34.279Z,29.10
2022-11-19T13:04:12.484Z,32.50
2022-11-19T13:06:50.743Z,29.90
2022-11-19T13:09:29.206Z,32.00
2022-11-19T13:12:06.776Z,32.70
2022-11-19T13:14:43.948Z,29.80
2022-11-19T13:17:23.346Z,30.90
2022-11-19T13:19:58.925Z,36.80
2022-11-19T13:22:36.733Z,26.80
2022-11-19T13:25:19.970Z,24.40
2022-11-19T13:27:53.716Z,25.30
2022-11-19T13:30:29.865Z,20.60
2022-11-19T13:33:11.117Z,22.40
2022-11-19T13:35:50.888Z,24.60
2022-11-19T13:38:29.327Z,27.40
2022-11-19T13:41:11.960Z,27.30
2022-11-19T13:44:02.209Z,22.00
2022-11-19T13:46:40.274Z,22.60
2022-11-19T13:49:19.680Z,30.70
2022-11-19T13:51:56.506Z,32.50
2022-11-19T13:54:34.224Z,28.50
2022-11-19T13:57:08.467Z,30.20
2022-11-19T13:59:45.420Z,27.20
2022-11-19T14:02:58.252Z,29.40
2022-11-19T14:05:45.914Z,26.00
2022-11-19T14:08:41.589Z,28.70
2022-11-19T14:11:31.063Z,27.40
2022-11-19T14:14:44.027Z,26.20
2022-11-19T14:17:41.590Z,28.80
2022-11-19T14:20:52.849Z,29.20
2022-11-19T14:24:02.174Z,51.10
2022-11-19T14:27:17.666Z,57.00
2022-11-19T14:29:57.967Z,57.50
2022-11-19T14:32:36.440Z,77.90
2022-11-19T14:35:20.096Z,136.50
2022-11-19T14:37:55.109Z,178.20
2022-11-19T14:40:29.532Z,211.30
2022-11-19T14:43:46.390Z,251.90
2022-11-19T14:46:30.338Z,252.30
2022-11-19T14:49:10.641Z,241.00
2022-11-19T14:51:43.107Z,223.50
2022-11-19T14:54:32.523Z,167.00
2022-11-19T14:57:26.326Z,133.70
2022-11-19T15:00:01.266Z,185.30
2022-11-19T15:02:38.055Z,168.70
2022-11-19T15:05:19.251Z,142.60
2022-11-19T15:07:56.213Z,124.60
2022-11-19T15:10:47.476Z,115.70
2022-11-19T15:13:36.163Z,104.80
2022-11-19T15:16:16.061Z,114.50
2022-11-19T15:19:29.497Z,75.50
2022-11-19T15:22:27.216Z,90.70
2022-11-19T15:25:17.410Z,115.10
2022-11-19T15:28:15.603Z,124.10
2022-11-19T15:31:26.227Z,139.60
2022-11-19T15:34:17.915Z,123.80
2022-11-19T15:36:53.369Z,139.60
2022-11-19T15:39:29.744Z,107.30
2022-11-19T15:42:07.425Z,120.90
2022-11-19T15:44:47.379Z,127.20
2022-11-19T15:47:24.887Z,112.90
2022-11-19T15:49:59.505Z,166.60
2022-11-19T15:52:33.419Z,198.10
2022-11-19T15:55:19.374Z,156.40
2022-11-19T15:57:56.140Z,146.50
2022-11-19T16:00:29.347Z,138.90
2022-11-19T16:03:02.033Z,113.40
2022-11-19T16:05:34.341Z,71.90
2022-11-19T16:08:13.458Z,57.00
2022-11-19T16:11:08.463Z,65.00
2022-11-19T16:13:57.828Z,82.10
2022-11-19T16:16:48.201Z,76.50
2022-11-19T16:19:20.292Z,76.80
2022-11-19T16:21:57.150Z,67.00
2022-11-19T16:24:47.390Z,68.70
2022-11-19T16:27:24.216Z,62.80
2022-11-19T16:29:56.121Z,65.00
2022-11-19T16:32:29.560Z,63.80
2022-11-19T16:35:20.494Z,69.20
2022-11-19T16:37:53.723Z,71.40
2022-11-19T16:40:26.510Z,67.70
2022-11-19T16:43:01.414Z,57.20
2022-11-19T16:45:34.340Z,59.80
2022-11-19T16:48:06.496Z,54.80
2022-11-19T16:50:45.285Z,53.50
2022-11-19T16:53:48.053Z,54.10
2022-11-19T16:56:20.096Z,58.30
2022-11-19T16:58:55.971Z,55.90
2022-11-19T17:01:29.633Z,63.90
2022-11-19T17:04:07.175Z,64.70
2022-11-19T17:06:40.356Z,65.40
2022-11-19T17:09:32.198Z,71.20
2022-11-19T17:12:19.791Z,64.90
2022-11-19T17:14:56.266Z,64.00
2022-11-19T17:17:40.348Z,68.30
2022-11-19T17:20:52.648Z,83.30
2022-11-19T17:23:25.569Z,92.50
2022-11-19T17:25:59.500Z,90.80
2022-11-19T17:28:36.499Z,87.00
2022-11-19T17:31:15.906Z,74.80
2022-11-19T17:34:12.005Z,74.20
2022-11-19T17:36:43.898Z,81.50
2022-11-19T17:39:15.919Z,79.50
2022-11-19T17:42:05.066Z,77.90
2022-11-19T17:44:39.199Z,88.00
2022-11-19T17:47:24.476Z,95.30
2022-11-19T17:49:56.474Z,88.10
2022-11-19T17:52:30.603Z,90.90
2022-11-19T17:55:17.554Z,92.70
2022-11-19T17:57:49.348Z,90.60
2022-11-19T18:00:21.602Z,87.40
2022-11-19T18:02:53.361Z,84.00
2022-11-19T18:05:27.593Z,86.10
2022-11-19T18:07:59.409Z,94.10
2022-11-19T18:10:31.243Z,82.60
2022-11-19T18:13:03.170Z,80.20
2022-11-19T18:15:34.969Z,85.10
2022-11-19T18:18:07.151Z,89.60
2022-11-19T18:20:39.449Z,89.80
2022-11-19T18:23:14.644Z,99.20
2022-11-19T18:25:46.433Z,106.10
2022-11-19T18:28:18.213Z,109.60
2022-11-19T18:30:49.979Z,101.90
2022-11-19T18:33:21.754Z,99.40
2022-11-19T18:35:53.654Z,106.40
2022-11-19T18:38:26.145Z,111.30
2022-11-19T18:40:57.929Z,95.10
2022-11-19T18:43:47.179Z,102.30
2022-11-19T18:46:19.097Z,122.10
2022-11-19T18:48:51.465Z,155.60
2022-11-19T18:51:23.509Z,178.10
2022-11-19T18:53:55.315Z,193.10
2022-11-19T18:56:27.208Z,274.40
2022-11-19T18:59:03.400Z,264.30
2022-11-19T19:01:36.837Z,277.60
2022-11-19T19:04:09.994Z,312.70
2022-11-19T19:06:42.213Z,271.80
2022-11-19T19:09:20.228Z,253.10
2022-11-19T19:12:13.522Z,212.40
2022-11-19T19:14:47.130Z,206.80
2022-11-19T19:17:19.112Z,182.30
2022-11-19T19:19:50.913Z,170.10
2022-11-19T19:22:22.793Z,188.30
2022-11-19T19:24:58.200Z,181.20
2022-11-19T19:27:30.130Z,195.30
2022-11-19T19:30:02.037Z,215.10
2022-11-19T19:32:33.790Z,237.40
2022-11-19T19:35:05.912Z,241.80
2022-11-19T19:37:37.885Z,237.50
2022-11-19T19:40:12.584Z,251.80
2022-11-19T19:42:46.049Z,260.90
2022-11-19T19:45:18.162Z,270.40
2022-11-19T19:47:49.977Z,260.20
2022-11-19T19:50:21.757Z,252.40
2022-11-19T19:52:53.571Z,271.30
2022-11-19T19:55:25.370Z,267.30
2022-11-19T19:57:57.115Z,270.10
2022-11-19T20:00:29.052Z,235.50
2022-11-19T20:03:00.810Z,233.80
2022-11-19T20:05:32.634Z,215.10
2022-11-19T20:08:04.703Z,217.80
2022-11-19T20:10:36.536Z,213.60
2022-11-19T20:13:27.524Z,203.20
2022-11-19T20:16:01.048Z,200.50
2022-11-19T20:18:33.964Z,210.80
2022-11-19T20:21:07.517Z,207.00
2022-11-19T20:23:41.019Z,215.70
2022-11-19T20:26:16.307Z,221.60
2022-11-19T20:28:48.824Z,227.10
2022-11-19T20:31:21.594Z,242.80
2022-11-19T20:33:56.537Z,242.90
2022-11-19T20:36:30.777Z,253.10
2022-11-19T20:39:03.204Z,226.70
2022-11-19T20:41:53.149Z,224.20
2022-11-19T20:44:25.469Z,215.10
2022-11-19T20:46:58.629Z,203.00
2022-11-19T20:49:32.433Z,200.80
2022-11-19T20:52:04.395Z,204.50
2022-11-19T20:54:36.533Z,248.70
2022-11-19T20:57:08.662Z,246.60
2022-11-19T20:59:40.589Z,237.90
2022-11-19T21:02:12.981Z,244.90
2022-11-19T21:04:44.815Z,240.10
2022-11-19T21:07:16.842Z,242.00
2022-11-19T21:09:48.703Z,247.40
2022-11-19T21:12:20.458Z,257.10
2022-11-19T21:14:52.268Z,249.70
2022-11-19T21:17:24.125Z,225.10
2022-11-19T21:19:56.113Z,205.40
2022-11-19T21:22:27.906Z,209.60
2022-11-19T21:24:59.820Z,191.30
2022-11-19T21:27:31.986Z,187.80
2022-11-19T21:30:04.112Z,206.70
2022-11-19T21:32:35.906Z,182.20
2022-11-19T21:35:08.890Z,191.20
2022-11-19T21:37:40.728Z,190.50
2022-11-19T21:40:13.967Z,178.80
2022-11-19T21:42:45.772Z,175.90
2022-11-19T21:45:17.596Z,157.40
2022-11-19T21:47:49.572Z,148.40
2022-11-19T21:50:21.745Z,153.00
2022-11-19T21:52:53.571Z,139.70
2022-11-19T21:55:25.342Z,134.50
2022-11-19T21:57:57.205Z,128.30
2022-11-19T22:00:29.540Z,134.90
2022-11-19T22:03:01.727Z,126.70
2022-11-19T22:05:33.520Z,117.20
2022-11-19T22:08:05.711Z,127.70
2022-11-19T22:10:40.267Z,118.90
2022-11-19T22:13:16.043Z,120.30
2022-11-19T22:15:47.870Z,118.20
2022-11-19T22:18:19.963Z,113.00
2022-11-19T22:21:00.318Z,108.90
2022-11-19T22:23:32.303Z,100.60
2022-11-19T22:26:08.680Z,102.90
2022-11-19T22:28:40.873Z,99.70
2022-11-19T22:31:13.557Z,97.20
2022-11-19T22:33:47.839Z,92.80
2022-11-19T22:36:20.935Z,81.40
2022-11-19T22:38:53.537Z,93.80
2022-11-19T22:41:25.384Z,96.30
2022-11-19T22:43:57.219Z,102.80
2022-11-19T22:46:29.662Z,107.60
2022-11-19T22:49:01.410Z,101.10
2022-11-19T22:51:33.243Z,117.40
2022-11-19T22:54:05.489Z,133.70
2022-11-19T22:56:37.254Z,126.70
2022-11-19T22:59:09.209Z,106.40
2022-11-19T23:01:41.027Z,103.50
2022-11-19T23:04:16.340Z,100.00
2022-11-19T23:06:48.085Z,88.70
2022-11-19T23:09:20.532Z,90.60
2022-11-19T23:12:10.199Z,97.20
2022-11-19T23:14:42.854Z,90.90
2022-11-19T23:17:15.132Z,105.60
2022-11-19T23:19:46.926Z,96.10
2022-11-19T23:22:18.662Z,95.90
2022-11-19T23:24:50.558Z,98.20
2022-11-19T23:27:22.519Z,99.00
2022-11-19T23:29:55.148Z,100.90
2022-11-19T23:32:26.918Z,94.20
2022-11-19T23:34:58.677Z,91.90
2022-11-19T23:37:30.412Z,91.40
2022-11-19T23:40:02.201Z,76.30
2022-11-19T23:42:34.357Z,83.40
2022-11-19T23:45:07.130Z,87.20
2022-11-19T23:47:40.089Z,92.60
2022-11-19T23:50:13.286Z,96.90
2022-11-19T23:52:45.088Z,94.80
2022-11-19T23:55:16.886Z,94.50
2022-11-19T23:57:50.909Z,95.50
